createdAt,value
2023-02-19T00:00:17.062Z,96113.25
2023-02-19T00:01:22.481Z,96106.25
2023-02-19T00:02:24.502Z,96110.91
2023-02-19T00:03:27.621Z,96108.97
2023-02-19T00:04:29.843Z,96106.25
2023-02-19T00:05:32.819Z,96111.72
2023-02-19T00:06:36.206Z,96093.75
2023-02-19T00:07:39.194Z,96113.28
2023-02-19T00:08:41.171Z,96114.09
2023-02-19T00:09:44.173Z,96115.25
2023-02-19T00:10:47.558Z,96108.63
2023-02-19T00:11:50.569Z,96108.63
2023-02-19T00:12:52.556Z,96103.16
2023-02-19T00:13:57.461Z,96098.84
2023-02-19T00:15:00.525Z,96106.66
2023-02-19T00:16:06.316Z,96098.09
2023-02-19T00:17:09.322Z,96104.31
2023-02-19T00:18:11.375Z,96092.22
2023-02-19T00:19:20.432Z,96102.34
2023-02-19T00:20:22.416Z,96097.69
2023-02-19T00:21:26.283Z,96092.22
2023-02-19T00:22:28.254Z,96101.59
2023-02-19T00:23:31.586Z,96094.56
2023-02-19T00:24:34.544Z,96096.13
2023-02-19T00:25:36.913Z,96084.81
2023-02-19T00:26:42.511Z,96099.69
2023-02-19T00:27:44.530Z,96101.22
2023-02-19T00:28:48.638Z,96086.00
2023-02-19T00:29:50.733Z,96101.22
2023-02-19T00:30:53.715Z,96096.13
2023-02-19T00:31:55.853Z,96098.47
2023-02-19T00:32:58.939Z,96095.75
2023-02-19T00:34:03.844Z,96093.81
2023-02-19T00:35:07.318Z,96101.59
2023-02-19T00:36:28.051Z,96100.81
2023-02-19T00:37:31.110Z,96100.03
2023-02-19T00:38:36.847Z,96093.00
2023-02-19T00:39:39.818Z,96094.22
2023-02-19T00:40:41.754Z,96095.75
2023-02-19T00:41:46.478Z,96091.47
2023-02-19T00:42:48.701Z,96089.91
2023-02-19T00:43:54.133Z,96092.25
2023-02-19T00:44:56.638Z,96093.44
2023-02-19T00:45:59.527Z,96093.00
2023-02-19T00:47:02.483Z,96084.44
2023-02-19T00:48:06.184Z,96083.66
2023-02-19T00:49:10.044Z,96078.19
2023-02-19T00:50:12.238Z,96082.50
2023-02-19T00:51:16.502Z,96081.69
2023-02-19T00:52:18.435Z,96074.28
2023-02-19T00:53:21.539Z,96080.53
2023-02-19T00:54:24.858Z,96078.19
2023-02-19T00:55:27.011Z,96078.19
2023-02-19T00:56:31.041Z,96087.19
2023-02-19T00:57:34.723Z,96080.16
2023-02-19T00:58:41.509Z,96073.50
2023-02-19T00:59:44.470Z,96075.47
2023-02-19T01:00:46.967Z,96077.44
2023-02-19T01:01:50.743Z,96082.13
2023-02-19T01:02:52.946Z,96080.16
2023-02-19T01:03:56.041Z,96080.94
2023-02-19T01:04:58.054Z,96071.59
2023-02-19T01:06:02.225Z,96075.91
2023-02-19T01:07:04.290Z,96075.91
2023-02-19T01:08:07.339Z,96082.91
2023-02-19T01:09:10.345Z,96078.28
2023-02-19T01:10:12.354Z,96067.34
2023-02-19T01:11:16.403Z,96067.34
2023-02-19T01:12:18.381Z,96064.59
2023-02-19T01:13:22.663Z,96063.41
2023-02-19T01:14:24.653Z,96064.97
2023-02-19T01:15:27.614Z,96056.75
2023-02-19T01:16:30.997Z,96048.53
2023-02-19T01:17:37.210Z,96055.19
2023-02-19T01:18:39.996Z,96054.03
2023-02-19T01:19:43.930Z,96062.22
2023-02-19T01:20:46.598Z,96065.00
2023-02-19T01:21:49.634Z,96060.28
2023-02-19T01:22:51.662Z,96054.81
2023-02-19T01:23:55.329Z,96053.28
2023-02-19T01:24:57.771Z,96060.28
2023-02-19T01:26:00.857Z,96057.19
2023-02-19T01:27:02.879Z,96059.53
2023-02-19T01:28:06.004Z,96065.00
2023-02-19T01:29:10.059Z,96065.75
2023-02-19T01:30:13.981Z,96056.38
2023-02-19T01:31:18.373Z,96054.06
2023-02-19T01:32:21.716Z,96051.31
2023-02-19T01:33:23.713Z,96054.06
2023-02-19T01:34:27.025Z,96045.09
2023-02-19T01:35:29.031Z,96042.34
2023-02-19T01:36:34.779Z,96050.56
2023-02-19T01:37:37.351Z,96046.63
2023-02-19T01:38:40.326Z,96047.81
2023-02-19T01:39:42.348Z,96042.34
2023-02-19T01:40:45.289Z,96043.13
2023-02-19T01:41:47.259Z,96042.34
2023-02-19T01:42:50.340Z,96048.59
2023-02-19T01:43:58.066Z,96047.81
2023-02-19T01:45:23.068Z,96047.06
2023-02-19T01:46:26.277Z,96049.00
2023-02-19T01:47:29.342Z,96040.78
2023-02-19T01:48:36.084Z,96047.81
2023-02-19T01:49:48.587Z,96043.53
2023-02-19T01:50:55.386Z,96035.75
2023-02-19T01:52:00.431Z,96037.69
2023-02-19T01:53:07.454Z,96028.31
2023-02-19T01:54:13.168Z,96032.59
2023-02-19T01:55:16.586Z,96032.59
2023-02-19T01:56:20.359Z,96036.88
2023-02-19T01:57:26.505Z,96032.19
2023-02-19T01:58:33.678Z,96036.13
2023-02-19T01:59:37.072Z,96033.78
2023-02-19T02:00:40.918Z,96035.75
2023-02-19T02:01:43.982Z,96036.16
2023-02-19T02:02:52.493Z,96038.88
2023-02-19T02:03:55.610Z,96043.16
2023-02-19T02:05:00.184Z,96032.22
2023-02-19T02:06:05.775Z,96041.63
2023-02-19T02:07:28.519Z,96033.06
2023-02-19T02:08:50.892Z,96033.06
2023-02-19T02:10:15.016Z,96033.81
2023-02-19T02:11:18.520Z,96032.66
2023-02-19T02:12:20.547Z,96030.69
2023-02-19T02:13:23.543Z,96030.69
2023-02-19T02:14:29.470Z,96038.88
2023-02-19T02:15:40.655Z,96032.28
2023-02-19T02:16:53.492Z,96012.78
2023-02-19T02:17:59.460Z,96019.00
2023-02-19T02:19:14.972Z,96019.00
2023-02-19T02:20:33.521Z,96021.75
2023-02-19T02:22:06.839Z,96015.91
2023-02-19T02:23:16.890Z,96017.47
2023-02-19T02:24:38.360Z,96020.97
2023-02-19T02:25:58.959Z,96008.06
2023-02-19T02:27:23.795Z,96012.00
2023-02-19T02:28:51.886Z,96013.19
2023-02-19T02:30:23.912Z,96006.53
2023-02-19T02:31:30.687Z,95999.50
2023-02-19T02:32:38.019Z,96007.72
2023-02-19T02:33:44.889Z,96001.06
2023-02-19T02:34:53.859Z,96010.44
2023-02-19T02:35:59.460Z,96002.69
2023-02-19T02:37:05.430Z,96000.34
2023-02-19T02:38:10.200Z,96018.28
2023-02-19T02:39:16.444Z,95998.78
2023-02-19T02:40:19.838Z,96001.19
2023-02-19T02:41:23.046Z,96000.38
2023-02-19T02:42:27.640Z,96002.34
2023-02-19T02:43:39.119Z,96018.41
2023-02-19T02:44:42.091Z,96011.03
2023-02-19T02:45:46.379Z,96008.31
2023-02-19T02:46:55.910Z,95998.53
2023-02-19T02:47:59.733Z,96000.50
2023-02-19T02:49:05.486Z,95999.72
2023-02-19T02:50:15.133Z,95987.25
2023-02-19T02:51:23.957Z,95998.97
2023-02-19T02:52:57.650Z,95990.75
2023-02-19T02:54:23.449Z,95971.63
2023-02-19T02:55:31.337Z,95974.44
2023-02-19T02:56:35.950Z,95972.13
2023-02-19T02:57:38.648Z,95974.84
2023-02-19T02:58:42.412Z,95973.31
2023-02-19T02:59:49.073Z,95970.56
2023-02-19T03:01:18.738Z,95970.97
2023-02-19T03:02:26.891Z,95972.16
2023-02-19T03:03:32.562Z,95968.66
2023-02-19T03:05:03.229Z,95975.31
2023-02-19T03:06:12.147Z,95974.88
2023-02-19T03:07:15.898Z,95964.75
2023-02-19T03:08:24.868Z,95972.94
2023-02-19T03:09:40.444Z,95975.69
2023-02-19T03:10:48.502Z,95971.75
2023-02-19T03:12:11.079Z,95971.34
2023-02-19T03:13:47.402Z,95964.69
2023-02-19T03:15:11.941Z,95973.25
2023-02-19T03:16:38.872Z,95976.34
2023-02-19T03:18:05.708Z,95966.94
2023-02-19T03:19:30.666Z,95971.63
2023-02-19T03:20:37.871Z,95972.00
2023-02-19T03:21:43.768Z,95977.47
2023-02-19T03:22:50.112Z,95971.63
2023-02-19T03:24:12.400Z,95975.94
2023-02-19T03:25:37.339Z,95975.56
2023-02-19T03:26:43.117Z,95971.63
2023-02-19T03:27:49.783Z,95963.06
2023-02-19T03:29:12.590Z,95964.28
2023-02-19T03:30:22.639Z,95964.31
2023-02-19T03:31:30.114Z,95956.19
2023-02-19T03:32:40.366Z,95957.34
2023-02-19T03:33:46.137Z,95958.56
2023-02-19T03:34:53.803Z,95960.91
2023-02-19T03:36:00.799Z,95967.91
2023-02-19T03:37:21.703Z,95955.47
2023-02-19T03:38:28.165Z,95960.91
2023-02-19T03:39:31.981Z,95960.91
2023-02-19T03:40:56.187Z,95965.63
2023-02-19T03:42:06.062Z,95957.81
2023-02-19T03:43:18.076Z,95960.19
2023-02-19T03:44:27.593Z,95960.19
2023-02-19T03:45:38.998Z,95957.47
2023-02-19T03:46:51.957Z,95961.75
2023-02-19T03:48:04.570Z,95953.19
2023-02-19T03:49:18.660Z,95955.56
2023-02-19T03:50:28.546Z,95959.06
2023-02-19T03:51:39.046Z,95961.03
2023-02-19T03:52:54.115Z,95966.50
2023-02-19T03:54:10.620Z,95959.13
2023-02-19T03:55:18.109Z,95956.44
2023-02-19T03:56:30.539Z,95946.34
2023-02-19T03:57:40.552Z,95963.53
2023-02-19T03:58:52.109Z,95955.41
2023-02-19T04:00:01.172Z,95964.78
2023-02-19T04:01:07.412Z,95958.13
2023-02-19T04:02:14.756Z,95961.63
2023-02-19T04:03:21.040Z,95951.06
2023-02-19T04:04:28.941Z,95952.59
2023-02-19T04:05:33.335Z,95950.25
2023-02-19T04:06:38.960Z,95951.84
2023-02-19T04:07:45.263Z,95951.09
2023-02-19T04:08:54.014Z,95957.09
2023-02-19T04:09:56.623Z,95943.84
2023-02-19T04:11:01.238Z,95946.19
2023-02-19T04:12:07.666Z,95943.78
2023-02-19T04:13:16.168Z,95951.56
2023-02-19T04:14:23.194Z,95935.59
2023-02-19T04:15:30.275Z,95937.91
2023-02-19T04:16:36.684Z,95931.72
2023-02-19T04:17:53.599Z,95930.97
2023-02-19T04:19:00.760Z,95931.34
2023-02-19T04:20:08.041Z,95938.78
2023-02-19T04:21:12.064Z,95936.81
2023-02-19T04:22:16.204Z,95932.97
2023-02-19T04:23:24.220Z,95941.94
2023-02-19T04:24:31.212Z,95938.84
2023-02-19T04:25:35.747Z,95938.06
2023-02-19T04:26:38.319Z,95944.72
2023-02-19T04:27:42.037Z,95940.03
2023-02-19T04:28:44.239Z,95930.28
2023-02-19T04:29:47.219Z,95933.38
2023-02-19T04:30:49.293Z,95939.63
2023-02-19T04:31:52.272Z,95941.16
2023-02-19T04:32:55.464Z,95946.97
2023-02-19T04:33:58.387Z,95952.03
2023-02-19T04:35:00.375Z,95949.31
2023-02-19T04:36:03.257Z,95953.56
2023-02-19T04:37:06.701Z,95955.94
2023-02-19T04:38:08.657Z,95965.69
2023-02-19T04:39:11.646Z,95954.41
2023-02-19T04:40:13.669Z,95967.25
2023-02-19T04:41:16.555Z,95966.47
2023-02-19T04:42:18.641Z,95957.50
2023-02-19T04:43:21.718Z,95966.47
2023-02-19T04:44:23.665Z,95969.97
2023-02-19T04:45:26.548Z,95966.88
2023-02-19T04:46:28.534Z,95973.13
2023-02-19T04:47:32.767Z,95971.63
2023-02-19T04:48:36.020Z,95965.75
2023-02-19T04:49:38.918Z,95974.72
2023-02-19T04:50:40.964Z,95972.00
2023-02-19T04:51:43.963Z,95976.25
2023-02-19T04:52:49.140Z,95979.34
2023-02-19T04:53:52.047Z,95969.97
2023-02-19T04:54:54.101Z,95970.41
2023-02-19T04:55:56.960Z,95977.03
2023-02-19T04:56:58.946Z,95984.06
2023-02-19T04:58:01.856Z,95970.03
2023-02-19T04:59:03.839Z,95981.72
2023-02-19T05:00:08.384Z,95976.25
2023-02-19T05:01:11.284Z,95986.44
2023-02-19T05:02:14.291Z,95977.03
2023-02-19T05:03:16.171Z,95971.56
2023-02-19T05:04:20.518Z,95984.81
2023-02-19T05:05:22.546Z,95980.53
2023-02-19T05:06:25.449Z,95977.09
2023-02-19T05:07:27.415Z,95974.34
2023-02-19T05:08:30.291Z,95974.75
2023-02-19T05:09:32.298Z,95972.78
2023-02-19T05:10:35.234Z,95970.06
2023-02-19T05:11:37.450Z,95966.97
2023-02-19T05:12:40.333Z,95969.34
2023-02-19T05:13:42.266Z,95968.56
2023-02-19T05:14:45.197Z,95961.56
2023-02-19T05:15:55.337Z,95969.78
2023-02-19T05:16:58.571Z,95963.94
2023-02-19T05:18:00.537Z,95963.16
2023-02-19T05:19:03.430Z,95971.72
2023-02-19T05:20:07.760Z,95963.88
2023-02-19T05:21:11.972Z,95971.66
2023-02-19T05:22:14.066Z,95966.97
2023-02-19T05:23:16.951Z,95967.75
2023-02-19T05:24:19.200Z,95976.28
2023-02-19T05:25:22.095Z,95971.63
2023-02-19T05:26:24.136Z,95971.63
2023-02-19T05:27:27.186Z,95964.59
2023-02-19T05:28:29.136Z,95972.44
2023-02-19T05:29:32.606Z,95978.31
2023-02-19T05:30:35.511Z,95979.47
2023-02-19T05:31:38.652Z,95984.91
2023-02-19T05:32:40.577Z,95986.09
2023-02-19T05:33:44.295Z,95974.03
2023-02-19T05:34:46.160Z,95983.44
2023-02-19T05:35:51.724Z,95980.34
2023-02-19T05:36:53.614Z,95985.44
2023-02-19T05:37:56.811Z,95999.09
2023-02-19T05:38:59.018Z,95986.63
2023-02-19T05:40:01.921Z,95994.44
2023-02-19T05:41:09.608Z,96002.19
2023-02-19T05:42:14.834Z,96005.28
2023-02-19T05:43:17.275Z,95996.69
2023-02-19T05:44:20.139Z,95992.38
2023-02-19T05:45:22.005Z,96001.78
2023-02-19T05:46:26.555Z,96002.94
2023-02-19T05:47:28.522Z,95990.84
2023-02-19T05:48:31.353Z,95999.03
2023-02-19T05:49:33.289Z,96003.34
2023-02-19T05:50:39.829Z,96002.16
2023-02-19T05:51:52.782Z,96005.66
2023-02-19T05:52:54.662Z,96013.91
2023-02-19T05:53:58.561Z,96004.94
2023-02-19T05:55:00.439Z,96018.59
2023-02-19T05:56:03.872Z,96011.53
2023-02-19T05:57:05.757Z,96013.09
2023-02-19T05:58:08.778Z,96004.50
2023-02-19T05:59:16.480Z,96009.97
2023-02-19T06:00:20.792Z,96002.56
2023-02-19T06:01:25.289Z,95999.84
2023-02-19T06:02:28.148Z,96001.03
2023-02-19T06:03:30.173Z,95996.72
2023-02-19T06:04:33.080Z,96003.41
2023-02-19T06:05:35.027Z,96012.34
2023-02-19T06:06:38.176Z,96011.59
2023-02-19T06:07:42.932Z,96013.13
2023-02-19T06:08:46.104Z,96014.69
2023-02-19T06:09:50.444Z,96017.03
2023-02-19T06:10:53.317Z,96009.22
2023-02-19T06:11:56.196Z,96017.03
2023-02-19T06:12:58.125Z,96013.13
2023-02-19T06:14:01.228Z,96015.47
2023-02-19T06:15:04.654Z,96008.47
2023-02-19T06:16:08.895Z,96017.88
2023-02-19T06:17:10.982Z,96024.09
2023-02-19T06:18:13.864Z,96012.41
2023-02-19T06:19:15.781Z,96018.63
2023-02-19T06:20:18.982Z,96020.94
2023-02-19T06:21:21.027Z,96029.13
2023-02-19T06:22:23.907Z,96026.41
2023-02-19T06:23:29.072Z,96041.63
2023-02-19T06:24:32.431Z,96038.53
2023-02-19T06:25:34.333Z,96036.16
2023-02-19T06:26:37.887Z,96032.25
2023-02-19T06:27:39.866Z,96042.78
2023-02-19T06:28:43.319Z,96039.72
2023-02-19T06:29:46.306Z,96034.25
2023-02-19T06:30:50.102Z,96040.13
2023-02-19T06:31:54.512Z,96040.50
2023-02-19T06:32:56.522Z,96052.19
2023-02-19T06:33:59.389Z,96050.66
2023-02-19T06:35:01.353Z,96044.38
2023-02-19T06:36:05.789Z,96057.63
2023-02-19T06:37:07.917Z,96047.47
2023-02-19T06:38:10.930Z,96063.47
2023-02-19T06:39:15.192Z,96048.25
2023-02-19T06:40:17.230Z,96061.50
2023-02-19T06:41:20.702Z,96059.53
2023-02-19T06:42:22.728Z,96057.63
2023-02-19T06:43:25.594Z,96055.66
2023-02-19T06:44:27.706Z,96066.56
2023-02-19T06:45:30.566Z,96066.56
2023-02-19T06:46:32.504Z,96068.09
2023-02-19T06:47:35.466Z,96073.94
2023-02-19T06:48:39.377Z,96062.66
2023-02-19T06:49:42.302Z,96074.72
2023-02-19T06:50:44.176Z,96070.44
2023-02-19T06:51:47.128Z,96066.94
2023-02-19T06:52:49.102Z,96069.31
2023-02-19T06:53:52.011Z,96071.66
2023-02-19T06:54:55.298Z,96069.69
2023-02-19T06:55:59.467Z,96071.28
2023-02-19T06:57:01.922Z,96069.31
2023-02-19T06:58:05.026Z,96075.53
2023-02-19T06:59:08.592Z,96082.97
2023-02-19T07:00:12.374Z,96082.53
2023-02-19T07:01:14.308Z,96080.59
2023-02-19T07:02:17.198Z,96087.22
2023-02-19T07:03:19.111Z,96086.84
2023-02-19T07:04:22.072Z,96086.47
2023-02-19T07:05:23.985Z,96080.22
2023-02-19T07:06:27.766Z,96095.06
2023-02-19T07:07:29.774Z,96097.38
2023-02-19T07:08:32.752Z,96095.41
2023-02-19T07:09:34.687Z,96091.94
2023-02-19T07:10:38.930Z,96097.38
2023-02-19T07:11:41.241Z,96091.94
2023-02-19T07:12:44.508Z,96094.28
2023-02-19T07:13:46.820Z,96097.41
2023-02-19T07:14:49.761Z,96098.59
2023-02-19T07:15:57.073Z,96106.41
2023-02-19T07:17:20.077Z,96103.66
2023-02-19T07:18:22.986Z,96106.78
2023-02-19T07:19:25.845Z,96113.03
2023-02-19T07:20:27.750Z,96111.50
2023-02-19T07:21:31.118Z,96101.34
2023-02-19T07:22:33.041Z,96108.34
2023-02-19T07:23:36.270Z,96111.44
2023-02-19T07:24:39.170Z,96110.28
2023-02-19T07:25:42.456Z,96111.81
2023-02-19T07:26:45.328Z,96117.28
2023-02-19T07:27:47.187Z,96118.47
2023-02-19T07:28:52.498Z,96125.47
2023-02-19T07:29:54.426Z,96116.50
2023-02-19T07:31:01.849Z,96117.69
2023-02-19T07:32:04.216Z,96118.47
2023-02-19T07:33:10.353Z,96124.69
2023-02-19T07:34:12.487Z,96124.69
2023-02-19T07:35:15.549Z,96122.34
2023-02-19T07:36:18.754Z,96128.16
2023-02-19T07:37:21.630Z,96146.53
2023-02-19T07:38:25.248Z,96134.03
2023-02-19T07:39:28.166Z,96133.66
2023-02-19T07:40:30.077Z,96145.78
2023-02-19T07:41:34.415Z,96141.84
2023-02-19T07:42:36.543Z,96148.88
2023-02-19T07:43:40.456Z,96137.97
2023-02-19T07:44:42.379Z,96143.81
2023-02-19T07:45:45.540Z,96143.41
2023-02-19T07:46:47.438Z,96155.88
2023-02-19T07:47:50.289Z,96156.66
2023-02-19T07:48:52.218Z,96161.34
2023-02-19T07:49:55.057Z,96155.88
2023-02-19T07:50:58.566Z,96155.88
2023-02-19T07:52:02.869Z,96159.44
2023-02-19T07:53:05.318Z,96161.41
2023-02-19T07:54:08.568Z,96159.06
2023-02-19T07:55:10.522Z,96159.06
2023-02-19T07:56:14.233Z,96164.53
2023-02-19T07:57:17.686Z,96168.78
2023-02-19T07:58:20.706Z,96166.47
2023-02-19T07:59:22.867Z,96165.28
2023-02-19T08:00:25.868Z,96180.13
2023-02-19T08:01:42.586Z,96164.53
2023-02-19T08:03:03.166Z,96178.19
2023-02-19T08:04:06.372Z,96171.53
2023-02-19T08:05:08.465Z,96165.28
2023-02-19T08:06:12.387Z,96176.97
2023-02-19T08:07:14.291Z,96178.56
2023-02-19T08:08:17.960Z,96176.59
2023-02-19T08:09:19.877Z,96172.72
2023-02-19T08:10:40.118Z,96180.13
2023-02-19T08:12:00.599Z,96177.78
2023-02-19T08:13:22.406Z,96175.81
2023-02-19T08:14:26.310Z,96185.56
2023-02-19T08:15:28.251Z,96184.78
2023-02-19T08:16:42.544Z,96175.81
2023-02-19T08:17:45.039Z,96183.25
2023-02-19T08:18:48.602Z,96189.53
2023-02-19T08:19:50.520Z,96182.88
2023-02-19T08:20:53.532Z,96192.66
2023-02-19T08:21:55.453Z,96180.94
2023-02-19T08:22:58.398Z,96186.81
2023-02-19T08:24:01.421Z,96188.34
2023-02-19T08:25:03.712Z,96196.22
2023-02-19T08:26:07.632Z,96186.44
2023-02-19T08:27:09.615Z,96201.25
2023-02-19T08:28:14.615Z,96199.66
2023-02-19T08:29:17.579Z,96204.34
2023-02-19T08:30:19.676Z,96195.00
2023-02-19T08:31:22.887Z,96202.00
2023-02-19T08:32:25.003Z,96198.09
2023-02-19T08:33:28.625Z,96198.09
2023-02-19T08:34:30.552Z,96193.81
2023-02-19T08:35:35.367Z,96199.66
2023-02-19T08:36:39.176Z,96200.03
2023-02-19T08:37:41.280Z,96204.72
2023-02-19T08:38:44.784Z,96209.38
2023-02-19T08:39:47.356Z,96195.31
2023-02-19T08:40:50.243Z,96211.72
2023-02-19T08:41:52.223Z,96211.31
2023-02-19T08:42:55.276Z,96210.56
2023-02-19T08:43:59.460Z,96208.59
2023-02-19T08:45:01.419Z,96212.50
2023-02-19T08:46:07.085Z,96208.59
2023-02-19T08:47:09.251Z,96202.38
2023-02-19T08:48:12.825Z,96214.50
2023-02-19T08:49:16.430Z,96216.88
2023-02-19T08:50:18.545Z,96212.22
2023-02-19T08:51:21.464Z,96222.41
2023-02-19T08:52:23.363Z,96230.56
2023-02-19T08:53:26.716Z,96216.16
2023-02-19T08:54:29.691Z,96229.00
2023-02-19T08:55:32.134Z,96223.53
2023-02-19T08:56:35.162Z,96213.38
2023-02-19T08:57:37.667Z,96226.25
2023-02-19T08:58:41.253Z,96222.78
2023-02-19T08:59:44.564Z,96223.97
2023-02-19T09:00:48.510Z,96227.09
2023-02-19T09:01:52.846Z,96236.84
2023-02-19T09:02:54.865Z,96226.31
2023-02-19T09:03:59.001Z,96234.84
2023-02-19T09:05:01.083Z,96228.63
2023-02-19T09:06:04.476Z,96226.66
2023-02-19T09:07:09.540Z,96229.81
2023-02-19T09:08:11.458Z,96230.59
2023-02-19T09:09:14.344Z,96230.97
2023-02-19T09:10:16.327Z,96241.88
2023-02-19T09:11:19.313Z,96236.44
2023-02-19T09:12:21.279Z,96231.00
2023-02-19T09:13:24.127Z,96237.25
2023-02-19T09:14:26.030Z,96233.75
2023-02-19T09:15:30.652Z,96240.41
2023-02-19T09:16:32.610Z,96246.25
2023-02-19T09:17:35.691Z,96232.59
2023-02-19T09:18:38.657Z,96229.88
2023-02-19T09:19:40.631Z,96236.88
2023-02-19T09:20:43.540Z,96229.44
2023-02-19T09:21:45.560Z,96233.31
2023-02-19T09:22:48.498Z,96241.88
2023-02-19T09:23:51.454Z,96245.78
2023-02-19T09:24:54.405Z,96245.78
2023-02-19T09:26:01.351Z,96238.00
2023-02-19T09:27:04.373Z,96241.50
2023-02-19T09:28:06.675Z,96243.47
2023-02-19T09:29:09.688Z,96248.94
2023-02-19T09:30:12.024Z,96236.09
2023-02-19T09:31:17.398Z,96236.53
2023-02-19T09:32:19.508Z,96237.78
2023-02-19T09:33:22.694Z,96240.50
2023-02-19T09:34:24.878Z,96240.50
2023-02-19T09:35:27.722Z,96247.53
2023-02-19T09:36:30.652Z,96249.84
2023-02-19T09:37:34.154Z,96254.94
2023-02-19T09:38:37.128Z,96253.78
2023-02-19T09:39:39.090Z,96260.44
2023-02-19T09:40:42.124Z,96258.53
2023-02-19T09:41:46.635Z,96264.78
2023-02-19T09:42:51.567Z,96260.09
2023-02-19T09:43:53.751Z,96268.66
2023-02-19T09:45:00.289Z,96267.88
2023-02-19T09:46:07.869Z,96270.63
2023-02-19T09:47:18.359Z,96267.09
2023-02-19T09:48:20.364Z,96267.09
2023-02-19T09:49:29.102Z,96279.59
2023-02-19T09:50:36.277Z,96270.22
2023-02-19T09:51:42.710Z,96272.16
2023-02-19T09:52:49.385Z,96280.72
2023-02-19T09:53:52.356Z,96272.50
2023-02-19T09:54:59.411Z,96265.47
2023-02-19T09:56:01.758Z,96264.69
2023-02-19T09:57:05.802Z,96266.63
2023-02-19T09:58:21.783Z,96270.50
2023-02-19T09:59:27.279Z,96273.59
2023-02-19T10:00:34.032Z,96265.41
2023-02-19T10:01:40.457Z,96255.22
2023-02-19T10:02:44.718Z,96254.06
2023-02-19T10:03:49.845Z,96252.47
2023-02-19T10:04:52.887Z,96256.34
2023-02-19T10:05:56.542Z,96252.81
2023-02-19T10:07:03.731Z,96250.47
2023-02-19T10:08:10.759Z,96265.63
2023-02-19T10:09:22.176Z,96243.34
2023-02-19T10:10:34.333Z,96259.72
2023-02-19T10:11:37.659Z,96263.22
2023-02-19T10:12:44.272Z,96265.94
2023-02-19T10:13:51.039Z,96259.28
2023-02-19T10:14:59.976Z,96258.13
2023-02-19T10:16:06.068Z,96266.69
2023-02-19T10:17:25.490Z,96264.31
2023-02-19T10:18:37.149Z,96266.25
2023-02-19T10:19:40.090Z,96256.88
2023-02-19T10:20:41.997Z,96270.53
2023-02-19T10:21:45.552Z,96247.16
2023-02-19T10:22:47.436Z,96278.72
2023-02-19T10:23:55.022Z,96268.94
2023-02-19T10:24:58.582Z,96269.75
2023-02-19T10:26:01.129Z,96265.81
2023-02-19T10:27:04.046Z,96265.06
2023-02-19T10:28:14.416Z,96274.41
2023-02-19T10:29:17.410Z,96273.59
2023-02-19T10:30:23.037Z,96257.97
2023-02-19T10:31:27.126Z,96258.72
2023-02-19T10:32:29.796Z,96268.84
2023-02-19T10:33:34.828Z,96273.50
2023-02-19T10:34:36.820Z,96267.59
2023-02-19T10:35:53.997Z,96259.75
2023-02-19T10:36:56.359Z,96262.47
2023-02-19T10:37:59.525Z,96264.00
2023-02-19T10:39:04.039Z,96262.41
2023-02-19T10:40:12.835Z,96261.19
2023-02-19T10:41:18.567Z,96265.44
2023-02-19T10:42:23.260Z,96269.34
2023-02-19T10:43:33.000Z,96269.72
2023-02-19T10:44:43.690Z,96275.94
2023-02-19T10:45:47.803Z,96274.72
2023-02-19T10:46:55.305Z,96269.63
2023-02-19T10:47:58.679Z,96263.00
2023-02-19T10:49:06.430Z,96268.47
2023-02-19T10:50:21.612Z,96253.66
2023-02-19T10:51:32.410Z,96266.91
2023-02-19T10:52:36.650Z,96262.63
2023-02-19T10:53:43.652Z,96253.22
2023-02-19T10:54:46.831Z,96259.53
2023-02-19T10:55:49.822Z,96261.88
2023-02-19T10:56:52.719Z,96264.63
2023-02-19T10:57:55.651Z,96260.34
2023-02-19T10:59:16.768Z,96258.84
2023-02-19T11:00:26.888Z,96246.38
2023-02-19T11:01:29.873Z,96249.13
2023-02-19T11:02:32.946Z,96254.63
2023-02-19T11:03:34.854Z,96244.13
2023-02-19T11:04:39.291Z,96248.44
2023-02-19T11:05:56.097Z,96242.97
2023-02-19T11:06:58.959Z,96239.88
2023-02-19T11:08:01.051Z,96242.97
2023-02-19T11:09:04.387Z,96239.81
2023-02-19T11:10:07.302Z,96235.91
2023-02-19T11:11:10.620Z,96240.63
2023-02-19T11:12:15.246Z,96241.75
2023-02-19T11:13:27.438Z,96236.28
2023-02-19T11:14:33.037Z,96230.03
2023-02-19T11:15:36.065Z,96233.59
2023-02-19T11:16:42.193Z,96247.63
2023-02-19T11:17:45.306Z,96249.59
2023-02-19T11:18:57.027Z,96239.88
2023-02-19T11:20:08.401Z,96238.31
2023-02-19T11:21:25.874Z,96248.84
2023-02-19T11:22:32.693Z,96235.94
2023-02-19T11:23:37.094Z,96242.97
2023-02-19T11:24:40.629Z,96239.44
2023-02-19T11:25:46.703Z,96245.28
2023-02-19T11:26:49.977Z,96249.97
2023-02-19T11:28:03.955Z,96255.00
2023-02-19T11:29:19.680Z,96243.69
2023-02-19T11:30:36.256Z,96249.97
2023-02-19T11:31:39.554Z,96239.03
2023-02-19T11:32:41.519Z,96249.97
2023-02-19T11:33:55.393Z,96253.09
2023-02-19T11:35:22.670Z,96262.47
2023-02-19T11:36:34.264Z,96251.19
2023-02-19T11:37:36.224Z,96257.88
2023-02-19T11:38:39.062Z,96264.16
2023-02-19T11:39:44.253Z,96258.69
2023-02-19T11:40:55.792Z,96268.84
2023-02-19T11:42:22.921Z,96266.50
2023-02-19T11:43:49.200Z,96266.13
2023-02-19T11:45:08.062Z,96266.91
2023-02-19T11:46:18.235Z,96253.28
2023-02-19T11:47:50.270Z,96275.53
2023-02-19T11:48:55.849Z,96267.34
2023-02-19T11:50:09.337Z,96269.63
2023-02-19T11:51:30.269Z,96252.09
2023-02-19T11:52:38.730Z,96265.38
2023-02-19T11:53:49.781Z,96265.75
2023-02-19T11:54:58.226Z,96259.13
2023-02-19T11:56:14.030Z,96256.41
2023-02-19T11:57:30.277Z,96271.22
2023-02-19T11:58:48.579Z,96268.88
2023-02-19T12:00:02.147Z,96277.84
2023-02-19T12:01:18.106Z,96261.44
2023-02-19T12:02:39.071Z,96266.50
2023-02-19T12:04:06.133Z,96243.47
2023-02-19T12:05:38.477Z,96246.19
2023-02-19T12:06:56.345Z,96251.28
2023-02-19T12:08:20.221Z,96259.84
2023-02-19T12:09:36.523Z,96245.78
2023-02-19T12:10:49.744Z,96264.94
2023-02-19T12:12:06.443Z,96265.69
2023-02-19T12:13:20.634Z,96261.81
2023-02-19T12:15:02.208Z,96261.00
2023-02-19T12:16:15.944Z,96243.84
2023-02-19T12:17:55.563Z,96254.75
2023-02-19T12:19:23.794Z,96262.56
2023-02-19T12:20:34.845Z,96260.97
2023-02-19T12:21:54.380Z,96264.47
2023-02-19T12:23:10.611Z,96265.25
2023-02-19T12:24:28.875Z,96248.47
2023-02-19T12:25:56.869Z,96259.44
2023-02-19T12:27:09.498Z,96263.34
2023-02-19T12:28:29.515Z,96263.34
2023-02-19T12:29:52.317Z,96285.59
2023-02-19T12:31:08.910Z,96287.56
2023-02-19T12:32:28.397Z,96293.03
2023-02-19T12:33:58.722Z,96296.56
2023-02-19T12:35:15.583Z,96304.81
2023-02-19T12:36:27.989Z,96302.16
2023-02-19T12:37:41.645Z,96293.25
2023-02-19T12:38:45.796Z,96299.50
2023-02-19T12:40:00.884Z,96312.81
2023-02-19T12:41:19.641Z,96312.00
2023-02-19T12:42:39.283Z,96312.81
2023-02-19T12:43:46.881Z,96322.97
2023-02-19T12:44:54.001Z,96320.63
2023-02-19T12:46:00.482Z,96323.75
2023-02-19T12:47:07.632Z,96315.16
2023-02-19T12:48:16.919Z,96315.53
2023-02-19T12:49:27.582Z,96313.16
2023-02-19T12:50:31.929Z,96327.63
2023-02-19T12:51:40.650Z,96320.56
2023-02-19T12:52:48.564Z,96322.13
2023-02-19T12:53:56.694Z,96319.38
2023-02-19T12:55:04.322Z,96316.66
2023-02-19T12:56:14.690Z,96319.00
2023-02-19T12:57:22.746Z,96322.50
2023-02-19T12:58:30.571Z,96313.53
2023-02-19T12:59:39.157Z,96322.13
2023-02-19T13:00:44.651Z,96309.66